createdAt,value
2023-04-03T00:08:19.540Z,83.70
2023-04-03T00:18:18.591Z,83.80
2023-04-03T00:28:17.630Z,84.00
2023-04-03T00:38:16.692Z,84.40
2023-04-03T00:48:15.923Z,84.90
2023-04-03T00:58:14.551Z,85.10
2023-04-03T01:08:13.705Z,85.20
2023-04-03T01:18:12.555Z,85.30
2023-04-03T01:28:11.801Z,85.50
2023-04-03T01:38:11.534Z,85.60
2023-04-03T01:48:10.765Z,85.90
2023-04-03T01:58:10.443Z,86.10
2023-04-03T02:08:09.757Z,86.40
2023-04-03T02:18:08.672Z,86.90
2023-04-03T02:28:07.606Z,87.50
2023-04-03T02:38:07.972Z,87.80
2023-04-03T02:48:06.706Z,88.30
2023-04-03T02:58:07.401Z,88.60
2023-04-03T03:08:06.586Z,89.00
2023-04-03T03:18:05.906Z,89.10
2023-04-03T03:28:04.874Z,89.00
2023-04-03T03:38:03.792Z,89.00
2023-04-03T03:48:03.029Z,89.10
2023-04-03T03:58:03.447Z,89.10
2023-04-03T04:08:02.706Z,89.00
2023-04-03T04:18:01.795Z,88.90
2023-04-03T04:28:00.993Z,88.90
2023-04-03T04:38:00.740Z,89.00
2023-04-03T04:48:00.123Z,88.80
2023-04-03T04:57:58.874Z,88.80
2023-04-03T05:07:58.075Z,88.80
2023-04-03T05:17:56.761Z,89.00
2023-04-03T05:27:55.959Z,88.90
2023-04-03T05:37:55.357Z,88.80
2023-04-03T05:47:54.829Z,88.90
2023-04-03T05:57:54.154Z,89.30
2023-04-03T06:07:52.756Z,89.60
2023-04-03T06:17:52.201Z,89.50
2023-04-03T06:27:51.651Z,89.60
2023-04-03T06:37:50.736Z,89.30
2023-04-03T06:47:49.687Z,89.30
2023-04-03T06:57:48.823Z,88.50
2023-04-03T07:07:47.693Z,87.30
2023-04-03T07:17:47.228Z,86.80
2023-04-03T07:27:46.587Z,84.60
2023-04-03T07:37:46.885Z,79.80
2023-04-03T07:47:46.022Z,78.90
2023-04-03T07:57:44.601Z,76.10
2023-04-03T08:07:43.584Z,70.30
2023-04-03T08:17:42.872Z,69.60
2023-04-03T08:27:41.941Z,69.20
2023-04-03T08:37:40.896Z,61.60
2023-04-03T08:47:39.705Z,59.50
2023-04-03T08:57:38.716Z,59.80
2023-04-03T09:07:38.441Z,61.50
2023-04-03T09:17:38.133Z,57.20
2023-04-03T09:27:36.943Z,55.70
2023-04-03T09:37:35.772Z,52.00
2023-04-03T09:47:35.617Z,52.10
2023-04-03T09:57:35.711Z,49.20
2023-04-03T10:07:34.828Z,49.60
2023-04-03T10:17:35.311Z,47.70
2023-04-03T10:27:34.938Z,48.20
2023-04-03T10:37:35.602Z,48.80
2023-04-03T10:47:36.574Z,48.40
2023-04-03T10:57:36.722Z,49.20
2023-04-03T11:07:36.785Z,48.00
2023-04-03T11:17:35.779Z,46.40
2023-04-03T11:27:35.014Z,46.70
2023-04-03T11:37:34.514Z,45.10
2023-04-03T11:47:33.884Z,44.50
2023-04-03T11:57:33.029Z,43.60
2023-04-03T12:07:31.965Z,41.30
2023-04-03T12:17:31.398Z,42.80
2023-04-03T12:27:29.885Z,40.70
2023-04-03T12:37:28.907Z,39.10
2023-04-03T12:47:28.286Z,38.80
2023-04-03T12:57:27.994Z,38.90
2023-04-03T13:07:28.754Z,37.70
2023-04-03T13:17:28.619Z,37.70
2023-04-03T13:27:27.824Z,38.50
2023-04-03T13:37:27.073Z,38.70
2023-04-03T13:47:26.263Z,39.60
2023-04-03T13:57:25.037Z,40.00
2023-04-03T14:07:24.314Z,39.80
2023-04-03T14:17:25.124Z,40.00
2023-04-03T14:27:24.865Z,39.80
2023-04-03T14:37:24.028Z,39.90
2023-04-03T14:47:30.524Z,40.80
2023-04-03T14:57:24.524Z,41.90
2023-04-03T15:07:24.030Z,41.80
2023-04-03T15:17:22.976Z,42.70
2023-04-03T15:27:22.153Z,43.00
2023-04-03T15:37:20.966Z,41.90
2023-04-03T15:47:19.949Z,42.60
2023-04-03T15:57:18.927Z,44.30
2023-04-03T16:07:18.112Z,44.20
2023-04-03T16:17:17.066Z,45.20
2023-04-03T16:27:15.994Z,46.00
2023-04-03T16:37:15.556Z,45.80
2023-04-03T16:47:15.810Z,47.10
2023-04-03T16:57:15.000Z,47.40
2023-04-03T17:07:13.953Z,48.50
2023-04-03T17:17:13.195Z,47.20
2023-04-03T17:27:12.129Z,46.90
2023-04-03T17:37:11.216Z,48.20
2023-04-03T17:47:10.740Z,49.10
2023-04-03T17:57:10.084Z,49.40
2023-04-03T18:07:09.596Z,50.00
2023-04-03T18:17:09.312Z,50.80
2023-04-03T18:27:08.071Z,51.30
2023-04-03T18:37:07.064Z,51.70
2023-04-03T18:47:06.442Z,52.00
2023-04-03T18:57:05.175Z,52.30
2023-04-03T19:07:05.915Z,52.60
2023-04-03T19:17:07.023Z,53.00
2023-04-03T19:27:06.573Z,53.30
2023-04-03T19:37:06.304Z,53.90
2023-04-03T19:47:05.131Z,54.40
2023-04-03T19:57:04.180Z,54.60
2023-04-03T20:07:03.669Z,54.80
2023-04-03T20:17:03.983Z,55.10
2023-04-03T20:27:03.206Z,55.30
2023-04-03T20:37:02.165Z,55.60
2023-04-03T20:47:01.325Z,55.50
2023-04-03T20:57:01.992Z,55.50
2023-04-03T21:07:02.928Z,55.40
2023-04-03T21:17:02.466Z,55.50
2023-04-03T21:27:03.642Z,55.50
2023-04-03T21:37:04.362Z,56.20
2023-04-03T21:47:03.321Z,56.40
2023-04-03T21:57:02.588Z,56.40
2023-04-03T22:07:03.165Z,56.60
2023-04-03T22:17:02.344Z,56.60
2023-04-03T22:27:01.448Z,56.80
2023-04-03T22:37:00.686Z,57.10
2023-04-03T22:47:01.021Z,57.80
2023-04-03T22:57:00.388Z,58.00
2023-04-03T23:06:59.873Z,58.10
2023-04-03T23:17:01.601Z,58.80
2023-04-03T23:27:00.563Z,59.60
2023-04-03T23:36:59.384Z,60.80
2023-04-03T23:46:58.667Z,61.70
2023-04-03T23:56:59.143Z,62.20
